createdAt,value
2022-09-13T00:01:29.790Z,1014.64
2022-09-13T00:03:29.838Z,1014.61
2022-09-13T00:05:29.731Z,1014.61
2022-09-13T00:07:29.712Z,1014.63
2022-09-13T00:09:29.779Z,1014.67
2022-09-13T00:11:29.755Z,1014.71
2022-09-13T00:13:29.813Z,1014.69
2022-09-13T00:15:29.828Z,1014.69
2022-09-13T00:17:29.719Z,1014.69
2022-09-13T00:19:29.788Z,1014.72
2022-09-13T00:21:29.771Z,1014.67
2022-09-13T00:23:29.761Z,1014.68
2022-09-13T00:25:29.732Z,1014.68
2022-09-13T00:27:29.727Z,1014.66
2022-09-13T00:29:29.745Z,1014.53
2022-09-13T00:31:29.812Z,1014.45
2022-09-13T00:33:29.728Z,1014.45
2022-09-13T00:35:29.733Z,1014.27
2022-09-13T00:37:29.809Z,1014.29
2022-09-13T00:39:29.781Z,1014.27
2022-09-13T00:41:29.805Z,1014.23
2022-09-13T00:43:29.744Z,1014.23
2022-09-13T00:45:29.778Z,1014.13
2022-09-13T00:47:29.753Z,1014.07
2022-09-13T00:49:29.776Z,1014.05
2022-09-13T00:51:29.803Z,1014.02
2022-09-13T00:53:29.748Z,1014.02
2022-09-13T00:55:29.784Z,1014.11
2022-09-13T00:57:29.766Z,1014.11
2022-09-13T00:59:29.853Z,1014.17
2022-09-13T01:01:29.776Z,1014.17
2022-09-13T01:03:29.763Z,1014.15
2022-09-13T01:05:29.788Z,1014.16
2022-09-13T01:07:29.810Z,1014.16
2022-09-13T01:09:29.932Z,1014.16
2022-09-13T01:11:29.769Z,1014.16
2022-09-13T01:13:29.804Z,1014.20
2022-09-13T01:15:29.808Z,1014.19
2022-09-13T01:17:29.797Z,1014.28
2022-09-13T01:19:29.813Z,1014.31
2022-09-13T01:21:29.767Z,1014.31
2022-09-13T01:23:29.789Z,1014.20
2022-09-13T01:25:29.772Z,1014.11
2022-09-13T01:27:29.781Z,1014.09
2022-09-13T01:29:29.852Z,1014.09
2022-09-13T01:31:29.903Z,1014.09
2022-09-13T01:33:29.811Z,1014.09
2022-09-13T01:35:29.871Z,1014.02
2022-09-13T01:37:29.796Z,1014.02
2022-09-13T01:39:29.781Z,1014.02
2022-09-13T01:41:29.818Z,1014.03
2022-09-13T01:43:29.828Z,1014.00
2022-09-13T01:45:29.851Z,1014.04
2022-09-13T01:47:29.797Z,1014.08
2022-09-13T01:49:29.799Z,1014.08
2022-09-13T01:51:29.815Z,1014.04
2022-09-13T01:53:29.802Z,1014.06
2022-09-13T01:55:29.812Z,1014.02
2022-09-13T01:57:59.857Z,1014.04
2022-09-13T01:59:59.815Z,1014.03
2022-09-13T02:01:59.829Z,1014.03
2022-09-13T02:03:59.811Z,1014.05
2022-09-13T02:05:59.819Z,1014.01
2022-09-13T02:07:59.927Z,1014.01
2022-09-13T02:09:59.814Z,1014.03
2022-09-13T02:11:59.879Z,1014.03
2022-09-13T02:13:59.896Z,1014.10
2022-09-13T02:15:59.817Z,1014.07
2022-09-13T02:17:59.807Z,1014.07
2022-09-13T02:19:59.936Z,1014.02
2022-09-13T02:21:59.854Z,1014.02
2022-09-13T02:23:59.848Z,1014.01
2022-09-13T02:25:59.842Z,1013.92
2022-09-13T02:27:59.865Z,1013.87
2022-09-13T02:29:59.844Z,1013.87
2022-09-13T02:31:59.951Z,1013.87
2022-09-13T02:33:59.866Z,1013.91
2022-09-13T02:35:59.886Z,1013.82
2022-09-13T02:37:59.833Z,1013.80
2022-09-13T02:39:59.879Z,1013.80
2022-09-13T02:41:59.845Z,1013.81
2022-09-13T02:43:59.844Z,1013.84
2022-09-13T02:45:59.954Z,1013.85
2022-09-13T02:47:59.837Z,1013.87
2022-09-13T02:49:59.874Z,1013.87
2022-09-13T02:51:59.864Z,1013.83
2022-09-13T02:53:59.843Z,1013.81
2022-09-13T02:55:59.865Z,1013.78
2022-09-13T02:57:59.879Z,1013.78
2022-09-13T02:59:59.862Z,1013.78
2022-09-13T03:01:59.905Z,1013.81
2022-09-13T03:03:59.956Z,1013.79
2022-09-13T03:05:59.849Z,1013.80
2022-09-13T03:07:59.830Z,1013.80
2022-09-13T03:09:59.988Z,1013.87
2022-09-13T03:11:59.867Z,1013.89
2022-09-13T03:13:59.878Z,1013.95
2022-09-13T03:15:59.893Z,1013.91
2022-09-13T03:18:00.036Z,1013.91
2022-09-13T03:19:59.880Z,1013.89
2022-09-13T03:21:59.897Z,1013.89
2022-09-13T03:23:59.889Z,1013.86
2022-09-13T03:25:59.858Z,1013.83
2022-09-13T03:27:59.892Z,1013.83
2022-09-13T03:29:59.872Z,1013.84
2022-09-13T03:31:59.916Z,1013.79
2022-09-13T03:33:59.995Z,1013.74
2022-09-13T03:35:59.858Z,1013.74
2022-09-13T03:37:59.914Z,1013.72
2022-09-13T03:39:59.894Z,1013.72
2022-09-13T03:41:59.867Z,1013.72
2022-09-13T03:43:59.910Z,1013.67
2022-09-13T03:45:59.959Z,1013.67
2022-09-13T03:47:59.978Z,1013.60
2022-09-13T03:49:59.883Z,1013.68
2022-09-13T03:51:59.904Z,1013.74
2022-09-13T03:53:59.981Z,1013.80
2022-09-13T03:56:29.899Z,1013.80
2022-09-13T03:58:29.902Z,1013.77
2022-09-13T04:00:29.943Z,1013.74
2022-09-13T04:02:29.940Z,1013.73
2022-09-13T04:04:29.929Z,1013.73
2022-09-13T04:06:29.996Z,1013.78
2022-09-13T04:08:29.888Z,1013.79
2022-09-13T04:10:29.895Z,1013.72
2022-09-13T04:12:29.897Z,1013.76
2022-09-13T04:14:29.921Z,1013.76
2022-09-13T04:16:29.971Z,1013.76
2022-09-13T04:18:29.988Z,1013.76
2022-09-13T04:20:29.967Z,1013.76
2022-09-13T04:22:29.921Z,1013.76
2022-09-13T04:24:29.987Z,1013.76
2022-09-13T04:26:30.018Z,1013.76
2022-09-13T04:28:29.927Z,1013.76
2022-09-13T04:30:30.015Z,1013.73
2022-09-13T04:32:29.959Z,1013.73
2022-09-13T04:34:29.968Z,1013.91
2022-09-13T04:36:29.931Z,1013.97
2022-09-13T04:38:29.916Z,1013.97
2022-09-13T04:40:29.907Z,1013.97
2022-09-13T04:42:30.018Z,1013.97
2022-09-13T04:44:29.950Z,1013.97
2022-09-13T04:46:29.993Z,1013.83
2022-09-13T04:48:30.019Z,1013.69
2022-09-13T04:50:29.928Z,1013.69
2022-09-13T04:52:30.047Z,1013.69
2022-09-13T04:54:30.044Z,1013.69
2022-09-13T04:56:30.040Z,1013.69
2022-09-13T04:58:30.010Z,1013.63
2022-09-13T05:00:29.952Z,1013.63
2022-09-13T05:02:29.961Z,1013.63
2022-09-13T05:04:29.953Z,1013.63
2022-09-13T05:06:29.971Z,1013.52
2022-09-13T05:08:30.212Z,1013.52
2022-09-13T05:10:29.980Z,1013.52
2022-09-13T05:12:30.030Z,1013.52
2022-09-13T05:14:30.050Z,1013.60
2022-09-13T05:16:29.956Z,1013.74
2022-09-13T05:18:29.954Z,1013.76
2022-09-13T05:20:29.983Z,1013.76
2022-09-13T05:22:29.961Z,1013.81
2022-09-13T05:24:30.008Z,1013.76
2022-09-13T05:26:30.032Z,1013.72
2022-09-13T05:28:29.995Z,1013.72
2022-09-13T05:30:29.981Z,1013.79
2022-09-13T05:32:30.037Z,1013.81
2022-09-13T05:34:30.042Z,1013.83
2022-09-13T05:36:29.963Z,1013.85
2022-09-13T05:40:30.144Z,1013.91
2022-09-13T05:42:30.127Z,1013.91
2022-09-13T05:44:41.175Z,1014.14
2022-09-13T05:46:41.147Z,1014.09
2022-09-13T05:48:41.135Z,1014.09
2022-09-13T05:50:57.255Z,1014.21
2022-09-13T05:52:41.127Z,1014.23
2022-09-13T05:54:41.164Z,1014.25
2022-09-13T05:56:42.248Z,1014.22
2022-09-13T05:58:41.167Z,1014.22
2022-09-13T06:00:41.131Z,1014.35
2022-09-13T06:02:41.232Z,1014.35
2022-09-13T06:04:41.194Z,1014.35
2022-09-13T06:06:41.183Z,1014.35
2022-09-13T06:08:41.243Z,1014.33
2022-09-13T06:10:41.149Z,1014.33
2022-09-13T06:12:41.279Z,1014.28
2022-09-13T06:14:41.185Z,1014.30
2022-09-13T06:16:41.157Z,1014.30
2022-09-13T06:18:41.223Z,1014.30
2022-09-13T06:20:41.151Z,1014.30
2022-09-13T06:22:41.176Z,1014.30
2022-09-13T06:24:41.159Z,1014.30
2022-09-13T06:26:41.204Z,1014.30
2022-09-13T06:28:41.160Z,1014.30
2022-09-13T06:30:41.197Z,1014.30
2022-09-13T06:32:41.181Z,1014.29
2022-09-13T06:35:11.207Z,1014.25
2022-09-13T06:37:11.159Z,1014.25
2022-09-13T06:39:11.172Z,1014.25
2022-09-13T06:41:11.168Z,1014.18
2022-09-13T06:43:11.183Z,1014.18
2022-09-13T06:45:11.185Z,1014.18
2022-09-13T06:47:11.186Z,1014.18
2022-09-13T06:49:11.225Z,1014.18
2022-09-13T06:51:11.184Z,1014.24
2022-09-13T06:53:11.183Z,1014.29
2022-09-13T06:55:12.833Z,1014.45
2022-09-13T06:57:11.214Z,1014.45
2022-09-13T06:59:11.314Z,1014.45
2022-09-13T07:01:11.263Z,1014.45
2022-09-13T07:03:11.210Z,1014.45
2022-09-13T07:05:11.226Z,1014.34
2022-09-13T07:07:11.185Z,1014.34
2022-09-13T07:09:11.175Z,1014.30
2022-09-13T07:11:11.220Z,1014.28
2022-09-13T07:13:11.181Z,1014.25
2022-09-13T07:15:11.229Z,1014.25
2022-09-13T07:17:11.322Z,1014.25
2022-09-13T07:19:11.212Z,1014.19
2022-09-13T07:21:11.214Z,1014.24
2022-09-13T07:23:15.130Z,1014.24
2022-09-13T07:25:11.226Z,1014.24
2022-09-13T07:27:11.277Z,1014.24
2022-09-13T07:29:11.232Z,1014.24
2022-09-13T07:33:11.206Z,1014.14
2022-09-13T07:35:11.267Z,1014.14
2022-09-13T07:37:11.196Z,1014.14
2022-09-13T07:39:15.575Z,1014.06
2022-09-13T07:41:11.243Z,1014.06
2022-09-13T07:43:11.247Z,1014.06
2022-09-13T07:45:11.341Z,1014.06
2022-09-13T07:47:11.213Z,1014.06
2022-09-13T07:49:11.253Z,1014.00
2022-09-13T07:51:11.239Z,1014.00
2022-09-13T07:53:11.208Z,1014.16
2022-09-13T07:55:11.219Z,1014.16
2022-09-13T07:57:11.235Z,1014.20
2022-09-13T07:59:11.233Z,1014.16
2022-09-13T08:01:11.286Z,1014.16
2022-09-13T08:03:11.242Z,1014.16
2022-09-13T08:05:11.251Z,1014.02
2022-09-13T08:07:11.262Z,1014.02
2022-09-13T08:09:11.304Z,1014.00
2022-09-13T08:11:11.286Z,1014.00
2022-09-13T08:13:11.254Z,1014.00
2022-09-13T08:15:11.252Z,1014.00
2022-09-13T08:17:11.277Z,1014.07
2022-09-13T08:19:11.239Z,1014.07
2022-09-13T08:21:11.396Z,1014.07
2022-09-13T08:23:11.241Z,1014.07
2022-09-13T08:25:11.317Z,1014.07
2022-09-13T08:27:11.241Z,1014.07
2022-09-13T08:29:41.237Z,1014.27
2022-09-13T08:31:41.301Z,1014.27
2022-09-13T08:33:46.109Z,1014.25
2022-09-13T08:35:41.288Z,1014.29
2022-09-13T08:37:41.277Z,1014.29
2022-09-13T08:39:41.284Z,1014.18
2022-09-13T08:41:41.362Z,1014.18
2022-09-13T08:43:41.294Z,1014.12
2022-09-13T08:45:41.276Z,1014.14
2022-09-13T08:47:41.278Z,1014.14
2022-09-13T08:49:41.311Z,1014.21
2022-09-13T08:51:41.260Z,1014.21
2022-09-13T08:53:41.293Z,1014.21
2022-09-13T08:55:41.312Z,1014.24
2022-09-13T08:57:41.260Z,1014.24
2022-09-13T08:59:41.298Z,1014.22
2022-09-13T09:01:41.356Z,1014.22
2022-09-13T09:03:41.285Z,1014.22
2022-09-13T09:05:41.259Z,1014.22
2022-09-13T09:07:41.268Z,1014.22
2022-09-13T09:09:41.299Z,1014.22
2022-09-13T09:11:41.287Z,1014.22
2022-09-13T09:13:41.330Z,1014.22
2022-09-13T09:15:41.365Z,1014.13
2022-09-13T09:17:41.285Z,1014.13
2022-09-13T09:19:41.448Z,1014.13
2022-09-13T09:21:41.288Z,1014.13
2022-09-13T09:23:41.340Z,1014.13
2022-09-13T09:25:41.325Z,1014.13
2022-09-13T09:27:41.293Z,1014.18
2022-09-13T09:29:41.319Z,1014.18
2022-09-13T09:31:41.341Z,1014.18
2022-09-13T09:33:41.436Z,1014.13
2022-09-13T09:35:41.310Z,1014.13
2022-09-13T09:37:41.330Z,1014.13
2022-09-13T09:39:41.363Z,1014.13
2022-09-13T09:41:41.339Z,1014.13
2022-09-13T09:43:41.307Z,1014.15
2022-09-13T09:45:41.430Z,1014.15
2022-09-13T09:47:41.354Z,1014.15
2022-09-13T09:49:41.312Z,1014.08
2022-09-13T09:51:41.325Z,1014.08
2022-09-13T09:53:41.325Z,1014.02
2022-09-13T09:55:41.339Z,1014.02
2022-09-13T09:57:41.379Z,1014.02
2022-09-13T09:59:41.333Z,1014.02
2022-09-13T10:01:41.354Z,1014.02
2022-09-13T10:03:41.467Z,1014.02
2022-09-13T10:05:41.346Z,1014.02
2022-09-13T10:07:41.333Z,1014.07
2022-09-13T10:09:41.374Z,1014.04
2022-09-13T10:11:41.337Z,1014.03
2022-09-13T10:13:41.494Z,1014.03
2022-09-13T10:15:41.345Z,1014.03
2022-09-13T10:17:41.339Z,1014.03
2022-09-13T10:19:41.386Z,1013.98
2022-09-13T10:21:41.455Z,1013.93
2022-09-13T10:23:41.371Z,1013.90
2022-09-13T10:25:44.766Z,1013.90
2022-09-13T10:27:41.400Z,1013.90
2022-09-13T10:30:11.364Z,1013.89
2022-09-13T10:32:11.439Z,1013.89
2022-09-13T10:34:11.388Z,1013.90
2022-09-13T10:36:11.392Z,1013.90
2022-09-13T10:38:11.425Z,1013.90
2022-09-13T10:40:11.603Z,1013.90
2022-09-13T10:42:11.510Z,1013.98
2022-09-13T10:44:11.413Z,1013.98
2022-09-13T10:46:11.433Z,1013.98
2022-09-13T10:48:11.417Z,1013.98
2022-09-13T10:50:11.563Z,1014.11
2022-09-13T10:52:14.395Z,1014.11
2022-09-13T10:54:11.459Z,1014.09
2022-09-13T10:56:11.368Z,1014.05
2022-09-13T10:58:11.490Z,1014.05
2022-09-13T11:00:11.427Z,1014.03
2022-09-13T11:02:11.426Z,1014.03
2022-09-13T11:04:11.446Z,1013.97
2022-09-13T11:06:11.424Z,1013.97
2022-09-13T11:08:11.387Z,1013.97
2022-09-13T11:10:11.519Z,1013.97
2022-09-13T11:12:11.434Z,1013.75
2022-09-13T11:14:11.404Z,1013.81
2022-09-13T11:16:11.437Z,1013.81
2022-09-13T11:18:11.447Z,1013.81
2022-09-13T11:20:11.467Z,1013.85
2022-09-13T11:22:11.453Z,1013.85
2022-09-13T11:24:11.404Z,1013.84
2022-09-13T11:26:11.445Z,1013.84
2022-09-13T11:28:11.441Z,1013.84
2022-09-13T11:30:11.608Z,1013.74
2022-09-13T11:32:11.432Z,1013.71
2022-09-13T11:34:11.433Z,1013.71
2022-09-13T11:36:11.470Z,1013.73
2022-09-13T11:38:11.495Z,1013.73
2022-09-13T11:40:11.590Z,1013.73
2022-09-13T11:42:11.566Z,1013.73
2022-09-13T11:44:11.431Z,1013.73
2022-09-13T11:46:11.522Z,1013.65
2022-09-13T11:48:11.492Z,1013.65
2022-09-13T11:50:11.461Z,1013.62
2022-09-13T11:52:11.574Z,1013.61
2022-09-13T11:54:11.545Z,1013.61
2022-09-13T11:56:11.563Z,1013.61
2022-09-13T11:58:13.451Z,1013.65
2022-09-13T12:00:12.441Z,1013.65
2022-09-13T12:02:11.613Z,1013.72
2022-09-13T12:04:11.595Z,1013.72
2022-09-13T12:06:11.879Z,1013.72
2022-09-13T12:08:11.548Z,1013.72
2022-09-13T12:10:11.436Z,1013.72
2022-09-13T12:12:11.507Z,1013.72
2022-09-13T12:14:11.499Z,1013.72
2022-09-13T12:16:11.552Z,1013.60
2022-09-13T12:18:11.672Z,1013.54
2022-09-13T12:20:11.595Z,1013.60
2022-09-13T12:22:11.578Z,1013.60
2022-09-13T12:24:11.518Z,1013.60
2022-09-13T12:26:12.591Z,1013.74
2022-09-13T12:28:11.673Z,1013.74
2022-09-13T12:30:11.569Z,1013.74
2022-09-13T12:32:11.643Z,1013.74
2022-09-13T12:34:11.578Z,1013.73
2022-09-13T12:36:41.554Z,1013.70
2022-09-13T12:40:41.493Z,1013.67
2022-09-13T12:42:41.592Z,1013.54
2022-09-13T12:44:41.568Z,1013.52
2022-09-13T12:46:41.636Z,1013.47
2022-09-13T12:50:43.938Z,1013.42
2022-09-13T12:52:41.568Z,1013.35
2022-09-13T12:56:41.589Z,1013.33
2022-09-13T13:00:29.533Z,1013.42
2022-09-13T13:02:29.492Z,1013.42
2022-09-13T13:04:29.605Z,1013.44
2022-09-13T13:06:29.545Z,1013.43
2022-09-13T13:08:29.591Z,1013.43
2022-09-13T13:10:29.617Z,1013.43
2022-09-13T13:12:29.611Z,1013.50
2022-09-13T13:14:29.663Z,1013.47
2022-09-13T13:16:29.660Z,1013.48
2022-09-13T13:18:29.545Z,1013.48
2022-09-13T13:20:29.568Z,1013.41
2022-09-13T13:22:29.569Z,1013.37
2022-09-13T13:24:29.538Z,1013.34
2022-09-13T13:26:29.633Z,1013.34
2022-09-13T13:28:29.619Z,1013.34
2022-09-13T13:30:29.561Z,1013.30
2022-09-13T13:32:29.683Z,1013.26
2022-09-13T13:34:29.539Z,1013.19
2022-09-13T13:36:29.614Z,1013.19
2022-09-13T13:38:29.576Z,1013.15
2022-09-13T13:40:29.672Z,1013.11
2022-09-13T13:42:29.547Z,1013.06
2022-09-13T13:44:29.539Z,1013.05
2022-09-13T13:46:29.619Z,1013.05
2022-09-13T13:48:29.576Z,1012.96
2022-09-13T13:50:29.569Z,1012.96
2022-09-13T13:52:59.587Z,1012.84
2022-09-13T13:54:59.673Z,1012.77
2022-09-13T13:56:59.631Z,1012.71
2022-09-13T13:58:59.535Z,1012.68
2022-09-13T14:00:59.687Z,1012.68
2022-09-13T14:02:59.677Z,1012.66
2022-09-13T14:04:59.610Z,1012.65
2022-09-13T14:07:03.119Z,1012.63
2022-09-13T14:10:59.535Z,1012.59
2022-09-13T14:12:59.554Z,1012.54
2022-09-13T14:14:59.655Z,1012.46
2022-09-13T14:16:59.707Z,1012.48
2022-09-13T14:18:59.541Z,1012.48
2022-09-13T14:20:59.563Z,1012.44
2022-09-13T14:22:59.607Z,1012.47
2022-09-13T14:24:59.582Z,1012.46
2022-09-13T14:26:59.585Z,1012.41
2022-09-13T14:28:59.550Z,1012.41
2022-09-13T14:30:59.678Z,1012.41
2022-09-13T14:32:59.681Z,1012.34
2022-09-13T14:34:59.568Z,1012.38
2022-09-13T14:36:59.606Z,1012.38
2022-09-13T14:38:59.604Z,1012.40
2022-09-13T14:40:59.601Z,1012.40
2022-09-13T14:42:59.645Z,1012.34
2022-09-13T14:44:59.625Z,1012.34
2022-09-13T14:46:59.698Z,1012.34
2022-09-13T14:48:59.701Z,1012.36
2022-09-13T14:50:59.738Z,1012.34
2022-09-13T14:52:59.604Z,1012.42
2022-09-13T14:54:59.637Z,1012.40
2022-09-13T14:56:59.660Z,1012.40
2022-09-13T14:58:59.613Z,1012.40
2022-09-13T15:00:59.773Z,1012.41
2022-09-13T15:02:59.685Z,1012.34
2022-09-13T15:04:59.739Z,1012.30
2022-09-13T15:06:59.792Z,1012.30
2022-09-13T15:08:59.653Z,1012.28
2022-09-13T15:10:59.632Z,1012.28
2022-09-13T15:12:59.641Z,1012.32
2022-09-13T15:14:59.677Z,1012.32
2022-09-13T15:16:59.688Z,1012.27
2022-09-13T15:18:59.654Z,1012.19
2022-09-13T15:20:59.616Z,1012.18
2022-09-13T15:22:59.721Z,1012.19
2022-09-13T15:24:59.665Z,1012.19
2022-09-13T15:26:59.670Z,1012.24
2022-09-13T15:28:59.686Z,1012.23
2022-09-13T15:30:59.725Z,1012.22
2022-09-13T15:32:59.701Z,1012.22
2022-09-13T15:34:59.748Z,1012.22
2022-09-13T15:36:59.712Z,1012.26
2022-09-13T15:38:59.773Z,1012.29
2022-09-13T15:40:59.676Z,1012.25
2022-09-13T15:42:59.660Z,1012.25
2022-09-13T15:44:59.714Z,1012.17
2022-09-13T15:46:59.782Z,1012.18
2022-09-13T15:48:59.739Z,1012.07
2022-09-13T15:50:59.741Z,1012.07
2022-09-13T15:52:59.776Z,1012.07
2022-09-13T15:54:59.794Z,1012.05
2022-09-13T15:57:29.685Z,1012.04
2022-09-13T15:59:29.645Z,1012.03
2022-09-13T16:01:29.760Z,1012.03
2022-09-13T16:03:29.740Z,1012.03
2022-09-13T16:05:29.741Z,1011.92
2022-09-13T16:07:29.752Z,1011.92
2022-09-13T16:09:29.793Z,1011.92
2022-09-13T16:11:29.696Z,1011.92
2022-09-13T16:13:29.689Z,1011.73
2022-09-13T16:15:29.701Z,1011.72
2022-09-13T16:17:29.950Z,1011.67
2022-09-13T16:19:29.727Z,1011.64
2022-09-13T16:21:29.779Z,1011.64
2022-09-13T16:23:29.758Z,1011.65
2022-09-13T16:25:29.810Z,1011.62
2022-09-13T16:27:31.917Z,1011.57
2022-09-13T16:29:29.671Z,1011.57
2022-09-13T16:31:29.776Z,1011.57
2022-09-13T16:33:29.747Z,1011.57
2022-09-13T16:35:29.754Z,1011.57
2022-09-13T16:37:29.776Z,1011.57
2022-09-13T16:39:29.770Z,1011.57
2022-09-13T16:41:29.807Z,1011.43
2022-09-13T16:43:29.800Z,1011.45
2022-09-13T16:45:29.711Z,1011.44
2022-09-13T16:47:29.736Z,1011.42
2022-09-13T16:49:30.033Z,1011.42
2022-09-13T16:51:29.784Z,1011.39
2022-09-13T16:53:29.804Z,1011.39
2022-09-13T16:55:32.681Z,1011.30
2022-09-13T16:57:29.839Z,1011.24
2022-09-13T16:59:29.772Z,1011.24
2022-09-13T17:01:29.840Z,1011.20
2022-09-13T17:03:29.773Z,1011.18
2022-09-13T17:05:29.745Z,1011.17
2022-09-13T17:07:29.772Z,1011.15
2022-09-13T17:09:30.010Z,1011.15
2022-09-13T17:11:29.817Z,1011.15
2022-09-13T17:13:29.852Z,1011.15
2022-09-13T17:15:29.773Z,1011.13
2022-09-13T17:17:29.788Z,1011.13
2022-09-13T17:19:29.765Z,1011.13
2022-09-13T17:21:29.790Z,1011.14
2022-09-13T17:23:29.803Z,1011.13
2022-09-13T17:25:29.729Z,1011.11
2022-09-13T17:27:29.819Z,1011.11
2022-09-13T17:29:29.762Z,1011.11
2022-09-13T17:31:29.742Z,1011.08
2022-09-13T17:33:29.865Z,1011.05
2022-09-13T17:35:29.824Z,1011.06
2022-09-13T17:37:29.924Z,1011.06
2022-09-13T17:39:29.911Z,1011.07
2022-09-13T17:41:29.896Z,1011.13
2022-09-13T17:43:29.937Z,1011.12
2022-09-13T17:45:29.857Z,1011.12
2022-09-13T17:47:29.771Z,1011.14
2022-09-13T17:49:29.777Z,1011.14
2022-09-13T17:51:29.801Z,1011.11
2022-09-13T17:53:29.813Z,1011.11
2022-09-13T17:55:29.755Z,1011.11
2022-09-13T17:57:29.847Z,1011.12
2022-09-13T17:59:59.725Z,1011.17
2022-09-13T18:01:59.777Z,1011.16
2022-09-13T18:03:59.808Z,1011.17
2022-09-13T18:05:59.832Z,1011.18
2022-09-13T18:07:59.808Z,1011.16
2022-09-13T18:09:59.848Z,1011.16
2022-09-13T18:12:00.862Z,1011.22
2022-09-13T18:13:59.886Z,1011.25
2022-09-13T18:15:59.823Z,1011.24
2022-09-13T18:17:59.756Z,1011.24
2022-09-13T18:19:59.823Z,1011.17
2022-09-13T18:22:00.001Z,1011.21
2022-09-13T18:23:59.903Z,1011.25
2022-09-13T18:26:02.558Z,1011.25
2022-09-13T18:27:59.890Z,1011.25
2022-09-13T18:29:59.880Z,1011.22
2022-09-13T18:31:59.847Z,1011.19
2022-09-13T18:33:59.780Z,1011.19
2022-09-13T18:35:59.814Z,1011.26
2022-09-13T18:37:59.837Z,1011.26
2022-09-13T18:40:00.000Z,1011.31
2022-09-13T18:42:00.050Z,1011.30
2022-09-13T18:43:59.977Z,1011.29
2022-09-13T18:45:59.965Z,1011.29
2022-09-13T18:47:59.799Z,1011.29
2022-09-13T18:49:59.794Z,1011.29
2022-09-13T18:51:59.876Z,1011.29
2022-09-13T18:53:59.847Z,1011.30
2022-09-13T18:56:00.003Z,1011.30
2022-09-13T18:58:00.000Z,1011.34
2022-09-13T18:59:59.774Z,1011.33
2022-09-13T19:01:59.962Z,1011.40
2022-09-13T19:03:59.818Z,1011.41
2022-09-13T19:05:59.828Z,1011.41
2022-09-13T19:07:59.862Z,1011.42
2022-09-13T19:09:59.835Z,1011.44
2022-09-13T19:11:59.950Z,1011.44
2022-09-13T19:13:59.943Z,1011.44
2022-09-13T19:15:59.967Z,1011.44
2022-09-13T19:17:59.927Z,1011.44
2022-09-13T19:19:59.839Z,1011.41
2022-09-13T19:21:59.880Z,1011.44
2022-09-13T19:24:00.989Z,1011.44
2022-09-13T19:25:59.923Z,1011.44
2022-09-13T19:27:59.988Z,1011.44
2022-09-13T19:29:59.898Z,1011.44
2022-09-13T19:31:59.932Z,1011.42
2022-09-13T19:33:59.890Z,1011.42
2022-09-13T19:35:59.864Z,1011.46
2022-09-13T19:37:59.955Z,1011.46
2022-09-13T19:40:00.011Z,1011.45
2022-09-13T19:41:59.904Z,1011.45
2022-09-13T19:44:10.981Z,1011.47
2022-09-13T19:46:10.969Z,1011.47
2022-09-13T19:48:37.801Z,1011.51
2022-09-13T19:50:10.994Z,1011.51
2022-09-13T19:52:10.947Z,1011.51
2022-09-13T19:54:10.920Z,1011.46
2022-09-13T19:56:10.950Z,1011.46
2022-09-13T19:58:10.997Z,1011.46
2022-09-13T20:00:10.944Z,1011.50
2022-09-13T20:02:11.026Z,1011.50
2022-09-13T20:04:11.030Z,1011.55
2022-09-13T20:06:11.039Z,1011.53
2022-09-13T20:08:11.062Z,1011.47
2022-09-13T20:10:10.948Z,1011.44
2022-09-13T20:12:10.971Z,1011.44
2022-09-13T20:14:11.034Z,1011.50
2022-09-13T20:16:11.067Z,1011.49
2022-09-13T20:18:11.106Z,1011.51
2022-09-13T20:20:11.036Z,1011.51
2022-09-13T20:22:11.085Z,1011.51
2022-09-13T20:24:10.999Z,1011.51
2022-09-13T20:26:10.954Z,1011.46
2022-09-13T20:28:10.998Z,1011.46
2022-09-13T20:30:10.981Z,1011.46
2022-09-13T20:32:11.016Z,1011.46
2022-09-13T20:34:11.072Z,1011.56
2022-09-13T20:36:11.064Z,1011.56
2022-09-13T20:38:10.998Z,1011.65
2022-09-13T20:40:11.032Z,1011.65
2022-09-13T20:42:10.936Z,1011.58
2022-09-13T20:46:41.040Z,1011.47
2022-09-13T20:48:41.073Z,1011.47
2022-09-13T20:50:41.051Z,1011.50
2022-09-13T20:52:41.082Z,1011.46
2022-09-13T20:54:41.019Z,1011.39
2022-09-13T20:56:40.975Z,1011.39
2022-09-13T20:58:41.040Z,1011.39
2022-09-13T21:00:40.953Z,1011.37
2022-09-13T21:02:41.110Z,1011.33
2022-09-13T21:04:40.955Z,1011.33
2022-09-13T21:06:41.010Z,1011.33
2022-09-13T21:08:40.958Z,1011.33
2022-09-13T21:10:40.989Z,1011.33
2022-09-13T21:12:41.017Z,1011.33
2022-09-13T21:14:40.954Z,1011.33
2022-09-13T21:16:41.038Z,1011.33
2022-09-13T21:18:41.031Z,1011.33
2022-09-13T21:20:41.058Z,1011.36
2022-09-13T21:22:40.985Z,1011.33
2022-09-13T21:24:41.041Z,1011.32
2022-09-13T21:26:40.955Z,1011.32
2022-09-13T21:28:41.022Z,1011.34
2022-09-13T21:30:41.023Z,1011.36
2022-09-13T21:32:41.030Z,1011.32
2022-09-13T21:34:41.037Z,1011.32
2022-09-13T21:36:41.090Z,1011.32
2022-09-13T21:38:41.103Z,1011.32
2022-09-13T21:40:40.981Z,1011.22
2022-09-13T21:42:41.105Z,1011.15
2022-09-13T21:44:41.022Z,1011.15
2022-09-13T21:46:41.024Z,1011.15
2022-09-13T21:48:41.015Z,1011.16
2022-09-13T21:50:41.039Z,1011.16
2022-09-13T21:52:41.094Z,1011.13
2022-09-13T21:54:41.206Z,1011.13
2022-09-13T21:56:41.110Z,1011.13
2022-09-13T21:58:41.028Z,1011.13
2022-09-13T22:00:41.039Z,1011.21
2022-09-13T22:02:41.063Z,1011.21
2022-09-13T22:04:41.029Z,1011.21
2022-09-13T22:06:41.022Z,1010.86
2022-09-13T22:08:41.009Z,1010.86
2022-09-13T22:10:41.131Z,1010.80
2022-09-13T22:12:41.022Z,1010.87
2022-09-13T22:14:41.069Z,1010.87
2022-09-13T22:16:41.137Z,1010.98
2022-09-13T22:18:41.034Z,1011.03
2022-09-13T22:20:41.015Z,1011.01
2022-09-13T22:22:41.114Z,1011.01
2022-09-13T22:24:41.067Z,1010.95
2022-09-13T22:26:41.116Z,1010.96
2022-09-13T22:28:41.084Z,1011.03
2022-09-13T22:30:41.059Z,1010.99
2022-09-13T22:32:41.000Z,1010.99
2022-09-13T22:34:41.022Z,1010.99
2022-09-13T22:36:41.120Z,1010.90
2022-09-13T22:38:41.040Z,1010.90
2022-09-13T22:40:41.119Z,1010.90
2022-09-13T22:42:41.037Z,1010.90
2022-09-13T22:44:41.092Z,1010.73
2022-09-13T22:47:11.020Z,1010.63
2022-09-13T22:49:11.141Z,1010.63
2022-09-13T22:51:11.051Z,1010.63
2022-09-13T22:53:11.039Z,1010.63
2022-09-13T22:55:11.033Z,1010.63
2022-09-13T22:57:11.199Z,1010.63
2022-09-13T22:59:11.080Z,1010.58
2022-09-13T23:01:11.101Z,1010.55
2022-09-13T23:03:11.066Z,1010.55
2022-09-13T23:05:11.069Z,1010.55
2022-09-13T23:07:11.023Z,1010.55
2022-09-13T23:09:11.048Z,1010.26
2022-09-13T23:11:11.078Z,1010.28
2022-09-13T23:13:11.184Z,1010.31
2022-09-13T23:15:11.079Z,1010.31
2022-09-13T23:17:11.120Z,1010.30
2022-09-13T23:19:11.048Z,1010.30
2022-09-13T23:21:11.064Z,1010.30
2022-09-13T23:23:11.146Z,1010.30
2022-09-13T23:25:11.104Z,1010.32
2022-09-13T23:27:11.172Z,1010.32
2022-09-13T23:29:11.048Z,1010.32
2022-09-13T23:31:11.101Z,1010.32
2022-09-13T23:33:11.089Z,1010.32
2022-09-13T23:35:11.100Z,1010.38
2022-09-13T23:37:11.137Z,1010.38
2022-09-13T23:39:11.063Z,1010.17
2022-09-13T23:41:11.201Z,1010.17
2022-09-13T23:43:11.061Z,1010.17
2022-09-13T23:45:11.092Z,1010.17
2022-09-13T23:47:11.062Z,1010.07
2022-09-13T23:49:11.159Z,1010.07
2022-09-13T23:51:11.081Z,1010.07
2022-09-13T23:53:11.163Z,1010.07
2022-09-13T23:55:11.126Z,1010.05
2022-09-13T23:57:11.248Z,1010.05
2022-09-13T23:59:11.089Z,1010.05
